sensor_id;sensor_type;location;lat;lon;timestamp;pressure;altitude;pressure_sealevel;temperature;humidity
44349;BME280;30068;50.986;4.564;2023-06-22T00:01:18;101874.50;;;28.25;49.20
44349;BME280;30068;50.986;4.564;2023-06-22T00:03:43;101875.56;;;28.24;49.14
44349;BME280;30068;50.986;4.564;2023-06-22T00:06:09;101872.81;;;28.24;49.16
44349;BME280;30068;50.986;4.564;2023-06-22T00:08:34;101872.19;;;28.22;49.32
44349;BME280;30068;50.986;4.564;2023-06-22T00:10:59;101874.06;;;28.21;49.33
44349;BME280;30068;50.986;4.564;2023-06-22T00:13:24;101856.75;;;28.21;49.54
44349;BME280;30068;50.986;4.564;2023-06-22T00:15:50;101862.25;;;28.21;49.12
44349;BME280;30068;50.986;4.564;2023-06-22T00:18:15;101867.75;;;28.21;49.26
44349;BME280;30068;50.986;4.564;2023-06-22T00:20:41;101860.56;;;28.20;49.22
44349;BME280;30068;50.986;4.564;2023-06-22T00:23:06;101866.06;;;28.20;49.21
44349;BME280;30068;50.986;4.564;2023-06-22T00:25:33;101853.38;;;28.19;49.50
44349;BME280;30068;50.986;4.564;2023-06-22T00:27:58;101854.22;;;28.19;49.35
44349;BME280;30068;50.986;4.564;2023-06-22T00:30:23;101854.47;;;28.18;49.23
44349;BME280;30068;50.986;4.564;2023-06-22T00:32:49;101844.53;;;28.17;49.03
44349;BME280;30068;50.986;4.564;2023-06-22T00:35:14;101837.16;;;28.17;49.29
44349;BME280;30068;50.986;4.564;2023-06-22T00:37:39;101839.06;;;28.17;49.45
44349;BME280;30068;50.986;4.564;2023-06-22T00:40:08;101838.22;;;28.16;49.43
44349;BME280;30068;50.986;4.564;2023-06-22T00:42:40;101830.19;;;28.15;49.13
44349;BME280;30068;50.986;4.564;2023-06-22T00:45:06;101830.38;;;28.13;48.98
44349;BME280;30068;50.986;4.564;2023-06-22T00:47:31;101843.25;;;28.13;49.22
44349;BME280;30068;50.986;4.564;2023-06-22T00:49:57;101841.56;;;28.12;49.42
44349;BME280;30068;50.986;4.564;2023-06-22T00:52:22;101839.91;;;28.11;49.58
44349;BME280;30068;50.986;4.564;2023-06-22T00:54:52;101831.25;;;28.07;49.06
44349;BME280;30068;50.986;4.564;2023-06-22T00:57:17;101831.66;;;28.11;49.28
44349;BME280;30068;50.986;4.564;2023-06-22T00:59:43;101843.69;;;28.10;49.18
44349;BME280;30068;50.986;4.564;2023-06-22T01:02:09;101847.50;;;28.09;49.27
44349;BME280;30068;50.986;4.564;2023-06-22T01:04:35;101844.75;;;28.09;49.22
44349;BME280;30068;50.986;4.564;2023-06-22T01:12:31;101845.16;;;28.06;49.29
44349;BME280;30068;50.986;4.564;2023-06-22T01:15:00;101852.34;;;28.07;49.42
44349;BME280;30068;50.986;4.564;2023-06-22T01:17:27;101847.06;;;28.05;49.38
44349;BME280;30068;50.986;4.564;2023-06-22T01:19:54;101842.44;;;28.06;49.29
44349;BME280;30068;50.986;4.564;2023-06-22T01:22:24;101838.00;;;28.05;49.39
44349;BME280;30068;50.986;4.564;2023-06-22T01:30:10;101836.53;;;28.02;49.72
44349;BME280;30068;50.986;4.564;2023-06-22T01:32:37;101842.03;;;28.02;49.49
44349;BME280;30068;50.986;4.564;2023-06-22T01:35:04;101837.59;;;28.01;49.32
44349;BME280;30068;50.986;4.564;2023-06-22T01:37:30;101839.50;;;28.01;49.52
44349;BME280;30068;50.986;4.564;2023-06-22T01:39:57;101826.63;;;28.01;49.64
44349;BME280;30068;50.986;4.564;2023-06-22T01:42:23;101823.03;;;28.01;49.42
44349;BME280;30068;50.986;4.564;2023-06-22T01:44:49;101821.34;;;28.00;49.52
44349;BME280;30068;50.986;4.564;2023-06-22T01:47:15;101818.59;;;28.00;49.46
44349;BME280;30068;50.986;4.564;2023-06-22T01:49:41;101830.41;;;28.00;49.29
44349;BME280;30068;50.986;4.564;2023-06-22T01:52:07;101816.91;;;27.99;49.49
44349;BME280;30068;50.986;4.564;2023-06-22T01:54:32;101819.66;;;27.99;49.51
44349;BME280;30068;50.986;4.564;2023-06-22T01:56:58;101810.81;;;27.97;49.42
44349;BME280;30068;50.986;4.564;2023-06-22T02:01:57;101831.09;;;27.96;49.57
44349;BME280;30068;50.986;4.564;2023-06-22T02:04:27;101823.91;;;27.95;49.26
44349;BME280;30068;50.986;4.564;2023-06-22T02:06:56;101818.41;;;27.95;49.48
44349;BME280;30068;50.986;4.564;2023-06-22T02:09:23;101825.81;;;27.94;49.53
44349;BME280;30068;50.986;4.564;2023-06-22T02:11:51;101827.69;;;27.94;49.48
44349;BME280;30068;50.986;4.564;2023-06-22T02:14:19;101829.59;;;27.93;49.55
44349;BME280;30068;50.986;4.564;2023-06-22T02:16:45;101826.00;;;27.92;49.49
44349;BME280;30068;50.986;4.564;2023-06-22T02:19:11;101823.28;;;27.92;49.50
44349;BME280;30068;50.986;4.564;2023-06-22T02:21:36;101808.72;;;27.92;49.48
44349;BME280;30068;50.986;4.564;2023-06-22T02:24:01;101816.09;;;27.91;49.42
44349;BME280;30068;50.986;4.564;2023-06-22T02:26:27;101810.84;;;27.90;49.57
44349;BME280;30068;50.986;4.564;2023-06-22T02:28:52;101814.66;;;27.89;49.21
44349;BME280;30068;50.986;4.564;2023-06-22T02:31:18;101802.81;;;27.88;49.71
44349;BME280;30068;50.986;4.564;2023-06-22T02:33:43;101794.81;;;27.87;49.37
44349;BME280;30068;50.986;4.564;2023-06-22T02:36:09;101792.91;;;27.87;49.34
44349;BME280;30068;50.986;4.564;2023-06-22T02:38:37;101788.47;;;27.86;49.10
44349;BME280;30068;50.986;4.564;2023-06-22T02:41:02;101788.47;;;27.86;49.50
44349;BME280;30068;50.986;4.564;2023-06-22T02:43:27;101782.13;;;27.86;49.40
44349;BME280;30068;50.986;4.564;2023-06-22T02:45:52;101779.59;;;27.84;49.61
44349;BME280;30068;50.986;4.564;2023-06-22T02:48:18;101783.44;;;27.83;49.32
44349;BME280;30068;50.986;4.564;2023-06-22T02:50:43;101772.47;;;27.83;49.45
44349;BME280;30068;50.986;4.564;2023-06-22T02:53:08;101772.47;;;27.83;49.00
44349;BME280;30068;50.986;4.564;2023-06-22T02:55:34;101771.63;;;27.83;49.21
44349;BME280;30068;50.986;4.564;2023-06-22T02:57:59;101764.44;;;27.82;49.35
44349;BME280;30068;50.986;4.564;2023-06-22T03:00:24;101761.91;;;27.80;49.26
44349;BME280;30068;50.986;4.564;2023-06-22T03:02:55;101767.41;;;27.80;49.33
44349;BME280;30068;50.986;4.564;2023-06-22T03:05:20;101771.19;;;27.79;49.41
44349;BME280;30068;50.986;4.564;2023-06-22T03:07:46;101758.53;;;27.78;49.48
44349;BME280;30068;50.986;4.564;2023-06-22T03:10:11;101762.31;;;27.77;49.07
44349;BME280;30068;50.986;4.564;2023-06-22T03:12:37;101767.81;;;27.77;49.19
44349;BME280;30068;50.986;4.564;2023-06-22T03:15:04;101763.41;;;27.76;49.26
44349;BME280;30068;50.986;4.564;2023-06-22T03:17:29;101766.16;;;27.76;49.34
44349;BME280;30068;50.986;4.564;2023-06-22T03:19:54;101762.56;;;27.76;49.40
44349;BME280;30068;50.986;4.564;2023-06-22T03:22:19;101755.19;;;27.76;49.31
44349;BME280;30068;50.986;4.564;2023-06-22T03:24:44;101759.19;;;27.74;49.40
44349;BME280;30068;50.986;4.564;2023-06-22T03:27:10;101764.69;;;27.74;49.07
44349;BME280;30068;50.986;4.564;2023-06-22T03:29:35;101765.53;;;27.74;49.33
44349;BME280;30068;50.986;4.564;2023-06-22T03:32:00;101777.56;;;27.73;49.24
44349;BME280;30068;50.986;4.564;2023-06-22T03:34:25;101766.78;;;27.72;49.14
44349;BME280;30068;50.986;4.564;2023-06-22T03:36:51;101753.06;;;27.72;49.14
44349;BME280;30068;50.986;4.564;2023-06-22T03:39:16;101756.06;;;27.70;49.00
44349;BME280;30068;50.986;4.564;2023-06-22T03:41:41;101753.31;;;27.70;49.08
44349;BME280;30068;50.986;4.564;2023-06-22T03:44:06;101749.72;;;27.70;49.23
44349;BME280;30068;50.986;4.564;2023-06-22T03:46:35;101748.03;;;27.69;49.20
44349;BME280;30068;50.986;4.564;2023-06-22T03:49:00;101746.34;;;27.68;49.02
44349;BME280;30068;50.986;4.564;2023-06-22T03:51:28;101748.25;;;27.67;49.02
44349;BME280;30068;50.986;4.564;2023-06-22T03:53:53;101752.03;;;27.66;48.92
44349;BME280;30068;50.986;4.564;2023-06-22T03:56:18;101745.72;;;27.66;48.93
44349;BME280;30068;50.986;4.564;2023-06-22T03:58:45;101747.63;;;27.65;48.97
44349;BME280;30068;50.986;4.564;2023-06-22T04:01:10;101761.31;;;27.65;49.20
44349;BME280;30068;50.986;4.564;2023-06-22T04:03:36;101762.38;;;27.64;49.30
44349;BME280;30068;50.986;4.564;2023-06-22T04:06:01;101751.66;;;27.63;49.04
44349;BME280;30068;50.986;4.564;2023-06-22T04:08:27;101754.41;;;27.63;49.32
44349;BME280;30068;50.986;4.564;2023-06-22T04:10:52;101755.25;;;27.63;49.14
44349;BME280;30068;50.986;4.564;2023-06-22T04:13:17;101755.25;;;27.63;49.22
44349;BME280;30068;50.986;4.564;2023-06-22T04:15:43;101751.84;;;27.61;49.46
44349;BME280;30068;50.986;4.564;2023-06-22T04:18:08;101755.44;;;27.62;49.17
44349;BME280;30068;50.986;4.564;2023-06-22T04:20:33;101757.34;;;27.61;49.25
44349;BME280;30068;50.986;4.564;2023-06-22T04:22:58;101750.16;;;27.60;49.44
44349;BME280;30068;50.986;4.564;2023-06-22T04:25:24;101755.66;;;27.60;49.42
44349;BME280;30068;50.986;4.564;2023-06-22T04:27:49;101754.81;;;27.60;49.51
44349;BME280;30068;50.986;4.564;2023-06-22T04:30:14;101756.72;;;27.59;49.51
44349;BME280;30068;50.986;4.564;2023-06-22T04:32:41;101758.59;;;27.59;49.57
44349;BME280;30068;50.986;4.564;2023-06-22T04:35:07;101767.88;;;27.58;49.35
44349;BME280;30068;50.986;4.564;2023-06-22T04:37:32;101767.88;;;27.58;49.46
44349;BME280;30068;50.986;4.564;2023-06-22T04:39:58;101771.72;;;27.57;49.39
44349;BME280;30068;50.986;4.564;2023-06-22T04:42:25;101768.13;;;27.56;49.60
44349;BME280;30068;50.986;4.564;2023-06-22T04:44:51;101768.13;;;27.56;49.68
44349;BME280;30068;50.986;4.564;2023-06-22T04:47:16;101763.69;;;27.55;49.56
44349;BME280;30068;50.986;4.564;2023-06-22T04:49:41;101762.84;;;27.55;49.56
44349;BME280;30068;50.986;4.564;2023-06-22T04:52:08;101762.84;;;27.55;49.73
44349;BME280;30068;50.986;4.564;2023-06-22T04:54:34;101771.06;;;27.55;49.64
44349;BME280;30068;50.986;4.564;2023-06-22T04:57:00;101764.75;;;27.54;49.67
44349;BME280;30068;50.986;4.564;2023-06-22T04:59:27;101760.31;;;27.53;49.70
44349;BME280;30068;50.986;4.564;2023-06-22T05:02:00;101762.00;;;27.54;49.73
44349;BME280;30068;50.986;4.564;2023-06-22T05:04:26;101767.69;;;27.52;49.77
44349;BME280;30068;50.986;4.564;2023-06-22T05:06:53;101774.03;;;27.53;49.85
44349;BME280;30068;50.986;4.564;2023-06-22T05:09:18;101775.06;;;27.52;49.71
44349;BME280;30068;50.986;4.564;2023-06-22T05:11:44;101775.06;;;27.52;49.57
44349;BME280;30068;50.986;4.564;2023-06-22T05:14:09;101780.56;;;27.52;49.91
44349;BME280;30068;50.986;4.564;2023-06-22T05:16:34;101786.06;;;27.52;49.79
44349;BME280;30068;50.986;4.564;2023-06-22T05:19:00;101784.31;;;27.51;49.92
44349;BME280;30068;50.986;4.564;2023-06-22T05:21:29;101784.31;;;27.51;49.95
44349;BME280;30068;50.986;4.564;2023-06-22T05:23:54;101784.31;;;27.51;49.96
44349;BME280;30068;50.986;4.564;2023-06-22T05:26:21;101785.16;;;27.51;49.91
44349;BME280;30068;50.986;4.564;2023-06-22T05:28:46;101790.66;;;27.51;50.08
44349;BME280;30068;50.986;4.564;2023-06-22T05:31:12;101790.88;;;27.50;49.99
44349;BME280;30068;50.986;4.564;2023-06-22T05:33:38;101787.31;;;27.49;49.90
44349;BME280;30068;50.986;4.564;2023-06-22T05:36:04;101788.13;;;27.50;50.30
44349;BME280;30068;50.986;4.564;2023-06-22T05:38:29;101788.34;;;27.48;50.00
44349;BME280;30068;50.986;4.564;2023-06-22T05:40:54;101786.47;;;27.49;49.89
44349;BME280;30068;50.986;4.564;2023-06-22T05:43:19;101782.03;;;27.48;49.95
44349;BME280;30068;50.986;4.564;2023-06-22T05:45:45;101787.50;;;27.48;50.06
44349;BME280;30068;50.986;4.564;2023-06-22T05:48:10;101783.94;;;27.47;49.85
44349;BME280;30068;50.986;4.564;2023-06-22T05:50:36;101783.09;;;27.47;49.95
44349;BME280;30068;50.986;4.564;2023-06-22T05:53:01;101782.25;;;27.46;50.15
44349;BME280;30068;50.986;4.564;2023-06-22T05:55:27;101781.41;;;27.46;50.26
44349;BME280;30068;50.986;4.564;2023-06-22T05:57:52;101781.41;;;27.46;50.18
44349;BME280;30068;50.986;4.564;2023-06-22T06:00:17;101774.22;;;27.45;50.22
44349;BME280;30068;50.986;4.564;2023-06-22T06:02:42;101775.06;;;27.45;49.93
44349;BME280;30068;50.986;4.564;2023-06-22T06:05:08;101772.53;;;27.44;50.03
44349;BME280;30068;50.986;4.564;2023-06-22T06:07:33;101772.53;;;27.44;50.14
44349;BME280;30068;50.986;4.564;2023-06-22T06:09:59;101759.91;;;27.43;50.20
44349;BME280;30068;50.986;4.564;2023-06-22T06:12:24;101763.47;;;27.43;50.33
44349;BME280;30068;50.986;4.564;2023-06-22T06:14:49;101759.91;;;27.43;49.98
44349;BME280;30068;50.986;4.564;2023-06-22T06:17:16;101755.47;;;27.42;50.22
44349;BME280;30068;50.986;4.564;2023-06-22T06:19:41;101755.47;;;27.42;49.98
44349;BME280;30068;50.986;4.564;2023-06-22T06:22:06;101750.84;;;27.42;50.12
44349;BME280;30068;50.986;4.564;2023-06-22T06:24:32;101740.06;;;27.41;50.07
44349;BME280;30068;50.986;4.564;2023-06-22T06:26:57;101734.59;;;27.41;50.07
44349;BME280;30068;50.986;4.564;2023-06-22T06:29:23;101723.63;;;27.41;50.16
44349;BME280;30068;50.986;4.564;2023-06-22T06:31:48;101721.94;;;27.40;50.32
44349;BME280;30068;50.986;4.564;2023-06-22T06:34:14;101724.69;;;27.40;50.21
44349;BME280;30068;50.986;4.564;2023-06-22T06:36:39;101712.88;;;27.39;50.34
44349;BME280;30068;50.986;4.564;2023-06-22T06:39:04;101710.97;;;27.40;50.07
44349;BME280;30068;50.986;4.564;2023-06-22T06:41:30;101709.28;;;27.39;50.40
44349;BME280;30068;50.986;4.564;2023-06-22T06:43:55;101701.06;;;27.39;50.26
44349;BME280;30068;50.986;4.564;2023-06-22T06:46:21;101698.31;;;27.39;50.19
44349;BME280;30068;50.986;4.564;2023-06-22T06:48:47;101696.63;;;27.38;50.41
44349;BME280;30068;50.986;4.564;2023-06-22T06:51:12;101692.00;;;27.38;50.39
44349;BME280;30068;50.986;4.564;2023-06-22T06:53:37;101702.13;;;27.38;50.34
44349;BME280;30068;50.986;4.564;2023-06-22T06:56:03;101699.38;;;27.38;50.44
44349;BME280;30068;50.986;4.564;2023-06-22T06:58:30;101694.72;;;27.38;50.39
44349;BME280;30068;50.986;4.564;2023-06-22T07:00:55;101691.16;;;27.38;50.34
44349;BME280;30068;50.986;4.564;2023-06-22T07:03:20;101681.03;;;27.38;50.40
44349;BME280;30068;50.986;4.564;2023-06-22T07:05:45;101686.50;;;27.38;50.24
44349;BME280;30068;50.986;4.564;2023-06-22T07:08:11;101678.50;;;27.37;50.51
44349;BME280;30068;50.986;4.564;2023-06-22T07:10:36;101680.19;;;27.38;50.35
44349;BME280;30068;50.986;4.564;2023-06-22T07:13:01;101678.50;;;27.37;50.25
44349;BME280;30068;50.986;4.564;2023-06-22T07:15:26;101673.00;;;27.37;50.36
44349;BME280;30068;50.986;4.564;2023-06-22T07:17:51;101668.38;;;27.37;50.12
44349;BME280;30068;50.986;4.564;2023-06-22T07:20:17;101665.88;;;27.36;50.38
44349;BME280;30068;50.986;4.564;2023-06-22T07:22:44;101660.38;;;27.36;50.38
44349;BME280;30068;50.986;4.564;2023-06-22T07:25:09;101658.47;;;27.36;50.23
44349;BME280;30068;50.986;4.564;2023-06-22T07:27:38;101642.00;;;27.36;50.18
44349;BME280;30068;50.986;4.564;2023-06-22T07:30:07;101632.97;;;27.36;50.19
44349;BME280;30068;50.986;4.564;2023-06-22T07:32:33;101641.19;;;27.36;50.27
44349;BME280;30068;50.986;4.564;2023-06-22T07:34:58;101634.88;;;27.35;50.22
44349;BME280;30068;50.986;4.564;2023-06-22T07:37:23;101628.56;;;27.35;50.33
44349;BME280;30068;50.986;4.564;2023-06-22T07:39:48;101623.06;;;27.35;50.40
44349;BME280;30068;50.986;4.564;2023-06-22T07:42:15;101627.72;;;27.34;50.41
44349;BME280;30068;50.986;4.564;2023-06-22T07:44:43;101629.59;;;27.34;50.18
44349;BME280;30068;50.986;4.564;2023-06-22T07:47:09;101618.63;;;27.34;50.19
44349;BME280;30068;50.986;4.564;2023-06-22T07:49:34;101624.13;;;27.34;50.09
44349;BME280;30068;50.986;4.564;2023-06-22T07:51:59;101626.88;;;27.34;50.27
44349;BME280;30068;50.986;4.564;2023-06-22T07:54:25;101631.50;;;27.33;50.17
44349;BME280;30068;50.986;4.564;2023-06-22T07:56:50;101635.94;;;27.34;50.37
44349;BME280;30068;50.986;4.564;2023-06-22T07:59:16;101623.06;;;27.35;50.26
44349;BME280;30068;50.986;4.564;2023-06-22T08:01:41;101623.47;;;27.38;50.17
44349;BME280;30068;50.986;4.564;2023-06-22T08:04:07;101624.94;;;27.41;49.98
44349;BME280;30068;50.986;4.564;2023-06-22T08:06:33;101622.81;;;27.43;50.12
44349;BME280;30068;50.986;4.564;2023-06-22T08:08:58;101620.50;;;27.40;50.01
44349;BME280;30068;50.986;4.564;2023-06-22T08:11:24;101627.22;;;27.44;50.01
44349;BME280;30068;50.986;4.564;2023-06-22T08:13:50;101624.19;;;27.21;50.82
44349;BME280;30068;50.986;4.564;2023-06-22T08:16:15;101618.50;;;27.16;51.18
44349;BME280;30068;50.986;4.564;2023-06-22T08:18:41;101622.63;;;27.38;50.43
44349;BME280;30068;50.986;4.564;2023-06-22T08:21:06;101630.38;;;27.47;50.55
44349;BME280;30068;50.986;4.564;2023-06-22T08:23:31;101633.53;;;27.51;50.08
44349;BME280;30068;50.986;4.564;2023-06-22T08:25:56;101627.00;;;27.52;50.19
44349;BME280;30068;50.986;4.564;2023-06-22T08:28:22;101625.53;;;27.56;50.20
44349;BME280;30068;50.986;4.564;2023-06-22T08:30:47;101618.97;;;27.57;50.21
44349;BME280;30068;50.986;4.564;2023-06-22T08:33:12;101624.22;;;27.59;50.35
44349;BME280;30068;50.986;4.564;2023-06-22T08:35:37;101629.28;;;27.62;50.24
44349;BME280;30068;50.986;4.564;2023-06-22T08:38:03;101625.72;;;27.61;49.98
44349;BME280;30068;50.986;4.564;2023-06-22T08:40:28;101619.16;;;27.62;50.15
44349;BME280;30068;50.986;4.564;2023-06-22T08:42:54;101612.63;;;27.63;50.05
44349;BME280;30068;50.986;4.564;2023-06-22T08:45:20;101605.84;;;27.66;49.95
44349;BME280;30068;50.986;4.564;2023-06-22T08:47:45;101608.38;;;27.67;50.08
44349;BME280;30068;50.986;4.564;2023-06-22T08:50:11;101595.72;;;27.66;49.95
44349;BME280;30068;50.986;4.564;2023-06-22T08:52:37;101601.00;;;27.68;49.94
44349;BME280;30068;50.986;4.564;2023-06-22T08:55:02;101604.56;;;27.68;50.01
44349;BME280;30068;50.986;4.564;2023-06-22T08:57:28;101607.09;;;27.70;50.10
44349;BME280;30068;50.986;4.564;2023-06-22T08:59:53;101600.16;;;27.67;49.75
44349;BME280;30068;50.986;4.564;2023-06-22T09:02:18;101612.34;;;27.71;49.88
44349;BME280;30068;50.986;4.564;2023-06-22T09:04:45;101614.88;;;27.73;49.88
44349;BME280;30068;50.986;4.564;2023-06-22T09:07:10;101610.69;;;27.70;49.91
44349;BME280;30068;50.986;4.564;2023-06-22T09:09:36;101616.78;;;27.72;50.01
44349;BME280;30068;50.986;4.564;2023-06-22T09:12:02;101614.03;;;27.72;49.99
44349;BME280;30068;50.986;4.564;2023-06-22T09:14:27;101618.47;;;27.73;50.02
44349;BME280;30068;50.986;4.564;2023-06-22T09:16:52;101622.88;;;27.74;50.01
44349;BME280;30068;50.986;4.564;2023-06-22T09:19:17;101625.63;;;27.74;50.00
44349;BME280;30068;50.986;4.564;2023-06-22T09:21:42;101622.88;;;27.74;49.92
44349;BME280;30068;50.986;4.564;2023-06-22T09:24:08;101627.31;;;27.75;50.18
44349;BME280;30068;50.986;4.564;2023-06-22T09:26:33;101633.66;;;27.76;49.85
44349;BME280;30068;50.986;4.564;2023-06-22T09:28:58;101635.53;;;27.75;49.70
44349;BME280;30068;50.986;4.564;2023-06-22T09:31:23;101647.13;;;27.77;49.84
44349;BME280;30068;50.986;4.564;2023-06-22T09:33:54;101646.31;;;27.77;50.03
44349;BME280;30068;50.986;4.564;2023-06-22T09:36:20;101657.28;;;27.77;49.85
44349;BME280;30068;50.986;4.564;2023-06-22T09:38:45;101657.28;;;27.77;50.11
44349;BME280;30068;50.986;4.564;2023-06-22T09:41:11;101667.41;;;27.76;49.86
44349;BME280;30068;50.986;4.564;2023-06-22T09:43:36;101677.28;;;27.77;49.96
44349;BME280;30068;50.986;4.564;2023-06-22T09:46:01;101678.38;;;27.76;49.76
44349;BME280;30068;50.986;4.564;2023-06-22T09:48:27;101684.72;;;27.77;49.97
44349;BME280;30068;50.986;4.564;2023-06-22T09:50:53;101681.78;;;27.65;50.78
44349;BME280;30068;50.986;4.564;2023-06-22T09:53:18;101687.13;;;27.47;51.96
44349;BME280;30068;50.986;4.564;2023-06-22T09:55:43;101708.41;;;27.45;52.22
44349;BME280;30068;50.986;4.564;2023-06-22T09:58:08;101719.88;;;27.29;53.31
44349;BME280;30068;50.986;4.564;2023-06-22T10:00:34;101726.63;;;27.20;53.85
44349;BME280;30068;50.986;4.564;2023-06-22T10:02:59;101734.88;;;27.06;55.03
44349;BME280;30068;50.986;4.564;2023-06-22T10:05:25;101750.03;;;26.96;55.53
44349;BME280;30068;50.986;4.564;2023-06-22T10:07:50;101760.13;;;26.82;56.01
44349;BME280;30068;50.986;4.564;2023-06-22T10:10:15;101768.78;;;26.66;56.41
44349;BME280;30068;50.986;4.564;2023-06-22T10:12:45;101771.72;;;26.58;56.68
44349;BME280;30068;50.986;4.564;2023-06-22T10:15:11;101766.00;;;26.40;57.17
44349;BME280;30068;50.986;4.564;2023-06-22T10:17:36;101752.44;;;26.18;57.10
44349;BME280;30068;50.986;4.564;2023-06-22T10:20:01;101750.84;;;25.83;57.66
44349;BME280;30068;50.986;4.564;2023-06-22T10:22:31;101757.13;;;25.77;58.85
44349;BME280;30068;50.986;4.564;2023-06-22T10:24:56;101753.06;;;25.66;58.55
44349;BME280;30068;50.986;4.564;2023-06-22T10:27:22;101733.41;;;25.49;58.89
44349;BME280;30068;50.986;4.564;2023-06-22T10:29:47;101713.56;;;25.34;59.90
44349;BME280;30068;50.986;4.564;2023-06-22T10:32:12;101715.19;;;25.22;60.18
44349;BME280;30068;50.986;4.564;2023-06-22T10:34:37;101716.56;;;25.11;60.18
44349;BME280;30068;50.986;4.564;2023-06-22T10:37:02;101702.91;;;25.11;60.45
44349;BME280;30068;50.986;4.564;2023-06-22T10:39:28;101690.09;;;25.12;60.62
44349;BME280;30068;50.986;4.564;2023-06-22T10:41:53;101684.41;;;25.07;60.42
44349;BME280;30068;50.986;4.564;2023-06-22T10:44:18;101674.44;;;24.93;61.00
44349;BME280;30068;50.986;4.564;2023-06-22T10:46:43;101655.66;;;24.83;60.77
44349;BME280;30068;50.986;4.564;2023-06-22T10:49:09;101656.38;;;24.70;61.07
44349;BME280;30068;50.986;4.564;2023-06-22T10:51:34;101663.53;;;24.71;61.25
44349;BME280;30068;50.986;4.564;2023-06-22T10:53:59;101651.50;;;24.59;61.79
44349;BME280;30068;50.986;4.564;2023-06-22T10:56:24;101638.41;;;24.48;62.18
44349;BME280;30068;50.986;4.564;2023-06-22T10:58:49;101626.44;;;24.49;62.35
44349;BME280;30068;50.986;4.564;2023-06-22T11:01:15;101627.63;;;24.40;62.80
44349;BME280;30068;50.986;4.564;2023-06-22T11:03:40;101623.91;;;24.48;63.08
44349;BME280;30068;50.986;4.564;2023-06-22T11:06:05;101615.00;;;24.39;63.22
44349;BME280;30068;50.986;4.564;2023-06-22T11:08:30;101596.97;;;24.38;64.01
44349;BME280;30068;50.986;4.564;2023-06-22T11:10:56;101597.75;;;24.32;63.47
44349;BME280;30068;50.986;4.564;2023-06-22T11:13:21;101586.69;;;24.19;64.61
44349;BME280;30068;50.986;4.564;2023-06-22T11:15:46;101574.50;;;24.15;64.70
44349;BME280;30068;50.986;4.564;2023-06-22T11:18:11;101570.41;;;24.25;63.43
44349;BME280;30068;50.986;4.564;2023-06-22T11:20:36;101564.88;;;24.19;64.04
44349;BME280;30068;50.986;4.564;2023-06-22T11:23:06;101560.88;;;24.36;63.95
44349;BME280;30068;50.986;4.564;2023-06-22T11:25:32;101564.63;;;24.14;65.03
44349;BME280;30068;50.986;4.564;2023-06-22T11:27:59;101561.72;;;24.15;64.37
44349;BME280;30068;50.986;4.564;2023-06-22T11:30:25;101556.03;;;24.17;65.06
44349;BME280;30068;50.986;4.564;2023-06-22T11:32:50;101551.94;;;24.21;64.11
44349;BME280;30068;50.986;4.564;2023-06-22T11:35:15;101548.69;;;23.89;64.65
44349;BME280;30068;50.986;4.564;2023-06-22T11:37:40;101549.59;;;23.75;65.25
44349;BME280;30068;50.986;4.564;2023-06-22T11:40:07;101554.06;;;24.04;64.33
44349;BME280;30068;50.986;4.564;2023-06-22T11:42:34;101555.13;;;24.31;63.30
44349;BME280;30068;50.986;4.564;2023-06-22T11:44:59;101560.09;;;24.49;62.73
44349;BME280;30068;50.986;4.564;2023-06-22T11:47:24;101561.88;;;24.63;61.68
44349;BME280;30068;50.986;4.564;2023-06-22T11:49:49;101561.97;;;24.76;61.31
44349;BME280;30068;50.986;4.564;2023-06-22T11:52:15;101555.34;;;24.92;61.11
44349;BME280;30068;50.986;4.564;2023-06-22T11:54:40;101554.13;;;25.01;60.58
44349;BME280;30068;50.986;4.564;2023-06-22T11:57:05;101560.88;;;25.11;60.48
44349;BME280;30068;50.986;4.564;2023-06-22T11:59:30;101564.28;;;25.20;60.21
44349;BME280;30068;50.986;4.564;2023-06-22T12:01:56;101568.34;;;25.31;59.46
44349;BME280;30068;50.986;4.564;2023-06-22T12:04:23;101569.41;;;25.36;59.62
44349;BME280;30068;50.986;4.564;2023-06-22T12:06:48;101561.88;;;25.45;58.76
44349;BME280;30068;50.986;4.564;2023-06-22T12:09:13;101561.03;;;25.51;58.76
44349;BME280;30068;50.986;4.564;2023-06-22T12:11:38;101559.34;;;25.56;58.86
44349;BME280;30068;50.986;4.564;2023-06-22T12:14:04;101556.88;;;25.62;58.51
44349;BME280;30068;50.986;4.564;2023-06-22T12:16:29;101555.00;;;25.69;57.87
44349;BME280;30068;50.986;4.564;2023-06-22T12:18:54;101552.19;;;25.55;59.51
44349;BME280;30068;50.986;4.564;2023-06-22T12:21:19;101553.44;;;25.46;60.06
44349;BME280;30068;50.986;4.564;2023-06-22T12:23:45;101553.84;;;25.43;59.79
44349;BME280;30068;50.986;4.564;2023-06-22T12:26:10;101557.44;;;25.44;59.56
44349;BME280;30068;50.986;4.564;2023-06-22T12:28:35;101549.84;;;25.46;58.87
44349;BME280;30068;50.986;4.564;2023-06-22T12:31:00;101537.47;;;25.50;58.81
44349;BME280;30068;50.986;4.564;2023-06-22T12:33:28;101527.41;;;25.57;59.11
44349;BME280;30068;50.986;4.564;2023-06-22T12:35:55;101524.91;;;25.62;58.90
44349;BME280;30068;50.986;4.564;2023-06-22T12:38:20;101523.03;;;25.69;58.65
44349;BME280;30068;50.986;4.564;2023-06-22T12:40:45;101515.88;;;25.75;57.95
44349;BME280;30068;50.986;4.564;2023-06-22T12:43:12;101514.41;;;25.79;58.34
44349;BME280;30068;50.986;4.564;2023-06-22T12:45:37;101521.16;;;25.83;57.67
44349;BME280;30068;50.986;4.564;2023-06-22T12:48:02;101521.56;;;25.86;58.23
44349;BME280;30068;50.986;4.564;2023-06-22T12:50:28;101521.78;;;25.91;57.51
44349;BME280;30068;50.986;4.564;2023-06-22T12:52:53;101518.84;;;25.93;57.74
44349;BME280;30068;50.986;4.564;2023-06-22T12:55:18;101511.88;;;25.97;57.31